Time;durP1;ratioP1;P1;durP2;ratioP2;P2;SDS_P1;SDS_P2;PMS_P1;PMS_P2;Temp;Humidity;BMP_temperature;BMP_pressure;BME280_temperature;BME280_humidity;BME280_pressure;Samples;Min_cycle;Max_cycle;Signal;HPM_P1;HPM_P2
2023/01/13 00:00:15;;;;;;;1.70;1.60;;;;;;;2.70;80.67;96721.06;5050272;27;20056;-66
2023/01/13 00:02:42;;;;;;;1.83;1.63;;;;;;;2.60;80.38;96731.47;5050080;28;20048;-63
2023/01/13 00:05:10;;;;;;;3.17;1.55;;;;;;;2.58;80.48;96727.13;5050287;28;20049;-64
2023/01/13 00:07:39;;;;;;;2.72;2.42;;;;;;;2.61;80.89;96728.00;5050024;28;20395;-63
2023/01/13 00:10:11;;;;;;;1.60;1.50;;;;;;;2.62;80.39;96731.44;5049973;28;20128;-65
2023/01/13 00:12:41;;;;;;;2.35;1.88;;;;;;;2.72;80.78;96730.56;5050029;28;20048;-63
2023/01/13 00:15:09;;;;;;;1.15;1.08;;;;;;;2.78;80.77;96727.09;5050048;28;20041;-66
2023/01/13 00:17:38;;;;;;;1.40;1.20;;;;;;;2.84;80.54;96726.19;5049916;28;20053;-65
2023/01/13 00:20:07;;;;;;;1.50;1.40;;;;;;;2.87;80.71;96734.81;5049955;28;20045;-65
2023/01/13 00:22:34;;;;;;;1.92;1.73;;;;;;;2.87;80.32;96727.06;5049940;28;20049;-63
2023/01/13 00:25:03;;;;;;;1.48;1.33;;;;;;;2.88;80.20;96735.66;5049956;28;20050;-62
2023/01/13 00:27:31;;;;;;;1.60;1.50;;;;;;;2.79;80.19;96731.38;5049715;28;20577;-65
2023/01/13 00:29:58;;;;;;;5.88;1.35;;;;;;;2.81;80.32;96739.13;5049959;28;20455;-62
2023/01/13 00:32:26;;;;;;;1.30;1.20;;;;;;;2.81;80.37;96726.19;5049980;28;20114;-65
2023/01/13 00:34:53;;;;;;;1.58;1.48;;;;;;;2.82;80.22;96728.78;5049797;28;20053;-66
2023/01/13 00:37:20;;;;;;;1.75;1.65;;;;;;;2.83;80.21;96727.91;5049844;28;20123;-66
2023/01/13 00:39:47;;;;;;;1.40;1.30;;;;;;;2.87;80.23;96731.34;5049684;28;20544;-64
2023/01/13 00:45:01;;;;;;;1.92;1.60;;;;;;;2.82;79.94;96731.38;5049752;28;20145;-62
2023/01/13 00:47:28;;;;;;;1.60;1.50;;;;;;;2.84;80.30;96734.81;5049515;28;20546;-66
2023/01/13 00:49:56;;;;;;;1.75;1.52;;;;;;;2.76;79.92;96729.66;5049695;28;20052;-63
2023/01/13 00:52:24;;;;;;;1.30;1.20;;;;;;;2.71;80.13;96728.81;5052377;28;20048;-63
2023/01/13 00:54:51;;;;;;;1.50;1.40;;;;;;;2.69;80.34;96719.34;5053057;28;20059;-64
2023/01/13 00:57:19;;;;;;;1.58;1.48;;;;;;;2.67;80.80;96721.94;5052993;28;20056;-61
2023/01/13 00:59:47;;;;;;;1.40;1.30;;;;;;;2.66;80.86;96720.25;5052990;28;20530;-64
2023/01/13 01:02:15;;;;;;;1.48;1.38;;;;;;;2.66;80.87;96717.66;5053026;28;20080;-64
2023/01/13 01:04:42;;;;;;;1.63;1.40;;;;;;;2.63;80.57;96718.53;5052907;28;20436;-65
2023/01/13 01:07:09;;;;;;;1.60;1.40;;;;;;;2.60;80.78;96707.34;5052673;28;20083;-64
2023/01/13 01:09:38;;;;;;;1.90;1.80;;;;;;;2.58;80.64;96716.81;5052920;28;20052;-63
2023/01/13 01:12:06;;;;;;;1.35;1.25;;;;;;;2.58;81.04;96709.94;5052814;28;20053;-64
2023/01/13 01:14:33;;;;;;;1.60;1.50;;;;;;;2.62;81.26;96713.38;5052762;28;20053;-63
2023/01/13 01:17:00;;;;;;;2.28;1.85;;;;;;;2.62;80.71;96709.03;5052902;28;20106;-62
2023/01/13 01:19:29;;;;;;;1.30;1.20;;;;;;;2.53;80.36;96711.69;5052667;28;20045;-63
2023/01/13 01:21:56;;;;;;;1.30;1.20;;;;;;;2.62;80.47;96700.44;5052588;28;20131;-64
2023/01/13 01:24:23;;;;;;;2.05;1.50;;;;;;;2.70;80.68;96702.97;5052614;28;20045;-66
2023/01/13 01:26:50;;;;;;;1.40;1.30;;;;;;;2.70;80.39;96703.84;5052504;28;20049;-65
2023/01/13 01:29:17;;;;;;;1.27;1.17;;;;;;;2.69;80.41;96704.72;5052514;28;20078;-64
2023/01/13 01:31:45;;;;;;;1.10;1.00;;;;;;;2.63;80.20;96699.56;5052446;28;20073;-65
2023/01/13 01:34:13;;;;;;;1.60;1.30;;;;;;;2.64;80.23;96697.00;5052464;28;20510;-65
2023/01/13 01:36:41;;;;;;;1.30;1.20;;;;;;;2.70;80.06;96700.41;5052361;28;20060;-63
2023/01/13 01:39:12;;;;;;;1.00;1.00;;;;;;;2.68;79.98;96702.97;5052304;28;20136;-64
2023/01/13 01:43:57;;;;;;;1.30;1.20;;;;;;;2.73;79.66;96695.22;5052255;28;20049;-63
2023/01/13 01:44:54;;;;;;;1.08;0.98;;;;;;;2.75;79.58;96704.72;5051642;28;20136;-65
2023/01/13 01:47:23;;;;;;;1.00;0.90;;;;;;;2.78;79.40;96704.69;5052214;28;20533;-64
2023/01/13 01:49:51;;;;;;;2.05;1.10;;;;;;;2.75;79.74;96707.28;5052274;28;20045;-64
2023/01/13 01:52:24;;;;;;;0.93;0.93;;;;;;;2.77;79.47;96699.53;5052126;28;20045;-65
2023/01/13 01:54:56;;;;;;;1.23;1.13;;;;;;;2.83;79.69;96696.91;5052280;28;20064;-63
2023/01/13 01:57:29;;;;;;;1.17;1.08;;;;;;;2.85;79.72;96697.75;5052007;28;20053;-62
2023/01/13 01:59:59;;;;;;;1.17;1.08;;;;;;;2.80;79.97;96701.25;5052185;28;20049;-63
2023/01/13 02:02:27;;;;;;;3.40;1.10;;;;;;;2.80;79.71;96701.25;5051147;28;20093;-64
2023/01/13 02:04:56;;;;;;;1.10;1.00;;;;;;;2.77;79.58;96702.13;5051996;28;20131;-65
2023/01/13 02:07:28;;;;;;;2.17;0.98;;;;;;;2.67;79.63;96701.28;5051828;28;20410;-64
2023/01/13 02:09:58;;;;;;;1.10;1.00;;;;;;;2.64;80.13;96709.03;5051886;28;20081;-64
2023/01/13 02:12:31;;;;;;;1.40;1.30;;;;;;;2.65;80.11;96703.88;5051822;28;20052;-63
2023/01/13 02:15:02;;;;;;;1.63;1.45;;;;;;;2.71;79.92;96696.97;5051803;28;20049;-63
2023/01/13 02:17:49;;;;;;;1.85;1.30;;;;;;;2.65;80.20;96703.03;5051846;28;20502;-65
2023/01/13 02:20:52;;;;;;;1.08;0.98;;;;;;;2.60;80.47;96705.63;5051669;28;20049;-66
2023/01/13 02:27:39;;;;;;;1.20;1.08;;;;;;;2.69;80.88;96709.03;5051495;28;20100;-64
2023/01/13 02:33:16;;;;;;;1.58;1.27;;;;;;;2.73;81.05;96706.44;4990486;28;20061;-64
2023/01/13 02:35:50;;;;;;;0.90;0.90;;;;;;;2.73;80.73;96700.38;5035163;28;20148;-65
2023/01/13 02:38:23;;;;;;;1.10;1.00;;;;;;;2.72;80.91;96702.13;5051421;28;20058;-64
2023/01/13 02:40:58;;;;;;;1.35;1.13;;;;;;;2.79;81.20;96702.94;5051374;28;20047;-64
2023/01/13 02:46:25;;;;;;;0.85;0.82;;;;;;;2.78;80.39;96707.28;5051471;28;20136;-66
2023/01/13 02:48:57;;;;;;;0.90;0.90;;;;;;;2.81;80.06;96713.28;5051275;28;20053;-65
2023/01/13 02:51:29;;;;;;;1.40;1.10;;;;;;;2.82;78.43;96718.44;5051444;28;20125;-65
2023/01/13 02:54:01;;;;;;;2.53;0.88;;;;;;;2.74;78.06;96712.47;5051274;28;20049;-67
2023/01/13 02:56:30;;;;;;;1.23;1.10;;;;;;;2.67;79.19;96709.03;5051162;28;20057;-64
2023/01/13 02:58:59;;;;;;;0.80;0.80;;;;;;;2.67;79.53;96710.78;5051073;28;20112;-64
2023/01/13 03:01:28;;;;;;;1.23;0.95;;;;;;;2.66;79.79;96709.91;5051036;28;20463;-65
2023/01/13 03:03:56;;;;;;;1.02;0.90;;;;;;;2.70;80.27;96710.72;5051071;28;20577;-66
2023/01/13 03:06:41;;;;;;;1.08;1.00;;;;;;;2.65;80.68;96715.94;5051082;28;20402;-63
2023/01/13 03:09:16;;;;;;;0.95;0.90;;;;;;;2.59;79.98;96714.22;5050941;28;20088;-66
2023/01/13 03:11:56;;;;;;;1.02;0.93;;;;;;;2.47;80.55;96715.13;5051091;28;20130;-60
2023/01/13 03:14:36;;;;;;;0.93;0.93;;;;;;;2.47;80.49;96707.38;5050634;28;20049;-65
2023/01/13 03:17:17;;;;;;;1.13;0.90;;;;;;;2.53;80.93;96704.78;5050845;28;20102;-63
2023/01/13 03:19:54;;;;;;;1.10;1.00;;;;;;;2.57;81.57;96704.75;5050950;28;20463;-62
2023/01/13 03:22:28;;;;;;;1.10;1.00;;;;;;;2.62;81.66;96706.47;5050788;28;20067;-61
2023/01/13 03:25:00;;;;;;;1.30;1.20;;;;;;;2.61;81.10;96712.50;5050715;28;20135;-61
2023/01/13 03:27:32;;;;;;;1.40;1.10;;;;;;;2.64;81.13;96716.78;5050658;28;20490;-65
2023/01/13 03:30:06;;;;;;;1.30;1.20;;;;;;;2.53;81.39;96712.53;5050568;28;20147;-63
2023/01/13 03:32:39;;;;;;;1.20;1.10;;;;;;;2.61;81.05;96716.78;5050610;28;20045;-65
2023/01/13 03:35:13;;;;;;;1.20;1.02;;;;;;;2.64;80.71;96711.63;5050688;28;20049;-63
2023/01/13 03:37:46;;;;;;;3.40;1.20;;;;;;;2.59;81.22;96719.38;5050616;28;20105;-63
2023/01/13 03:40:15;;;;;;;1.55;1.35;;;;;;;2.63;81.00;96715.94;5050613;28;20599;-64
2023/01/13 03:44:20;;;;;;;1.63;1.52;;;;;;;2.65;80.88;96716.78;5050443;28;20045;-64
2023/01/13 03:45:34;;;;;;;1.23;1.13;;;;;;;2.67;80.61;96721.09;5050510;28;20080;-63
2023/01/13 03:48:06;;;;;;;1.30;1.20;;;;;;;2.68;80.61;96735.72;5050258;28;20052;-62
2023/01/13 03:50:38;;;;;;;0.98;0.98;;;;;;;2.70;80.58;96723.66;5050512;28;20124;-66
2023/01/13 03:53:10;;;;;;;12.10;8.50;;;;;;;2.68;80.74;96726.25;5050425;28;20128;-66
2023/01/13 03:55:40;;;;;;;4.32;3.28;;;;;;;2.75;80.85;96732.25;5050222;28;20048;-65
2023/01/13 03:58:13;;;;;;;1.70;1.60;;;;;;;2.77;80.88;96733.97;5050253;28;20131;-63
2023/01/13 04:00:48;;;;;;;1.60;1.50;;;;;;;2.80;80.87;96729.66;5050317;28;20044;-64
2023/01/13 04:03:24;;;;;;;1.13;1.02;;;;;;;2.88;80.78;96741.69;5050282;28;20132;-66
2023/01/13 04:05:58;;;;;;;1.25;1.15;;;;;;;2.96;80.92;96740.78;5050119;28;20045;-64
2023/01/13 04:08:28;;;;;;;1.30;1.20;;;;;;;2.93;81.02;96739.09;5050091;28;20075;-63
2023/01/13 04:11:01;;;;;;;1.47;1.23;;;;;;;2.89;80.69;96740.81;5050066;28;20061;-64
2023/01/13 04:13:32;;;;;;;2.58;1.45;;;;;;;2.94;80.82;96738.22;5050034;28;20057;-64
2023/01/13 04:16:00;;;;;;;1.20;1.10;;;;;;;2.95;80.94;96746.84;5050179;28;20406;-66
2023/01/13 04:18:30;;;;;;;1.90;1.63;;;;;;;2.96;80.83;96741.66;5050109;28;20105;-65
2023/01/13 04:21:00;;;;;;;;;;;;;;;3.02;80.46;96745.94;5050536;28;20387;-63
2023/01/13 04:23:28;;;;;;;1.48;1.38;;;;;;;2.98;80.09;96745.06;5049900;28;20008;-64
2023/01/13 04:25:56;;;;;;;1.52;1.42;;;;;;;2.99;80.25;96748.53;5050559;28;20164;-63
2023/01/13 04:28:24;;;;;;;1.33;1.23;;;;;;;3.03;79.89;96756.25;5053356;28;20490;-63
2023/01/13 04:30:52;;;;;;;3.38;1.20;;;;;;;3.03;79.22;96756.25;5053443;28;20053;-66
2023/01/13 04:33:20;;;;;;;1.42;1.00;;;;;;;3.07;79.49;96761.44;5053668;28;20486;-65
2023/01/13 04:35:53;;;;;;;1.33;1.23;;;;;;;3.07;79.61;96757.09;5053575;28;20057;-65
2023/01/13 04:38:22;;;;;;;1.10;1.00;;;;;;;3.06;79.48;96755.38;5053449;27;20128;-63
2023/01/13 04:40:49;;;;;;;1.27;1.17;;;;;;;3.07;79.27;96764.00;5053434;28;20055;-63
2023/01/13 04:43:17;;;;;;;1.00;1.00;;;;;;;3.08;80.17;96763.13;5053200;28;20053;-64
2023/01/13 04:45:44;;;;;;;1.48;1.10;;;;;;;3.07;80.08;96766.59;5053266;28;20045;-64
2023/01/13 04:48:12;;;;;;;1.23;1.00;;;;;;;3.02;80.63;96766.63;5053103;28;20049;-65
2023/01/13 04:50:39;;;;;;;1.05;0.93;;;;;;;2.98;81.24;96768.34;5053158;28;20045;-63
2023/01/13 04:53:07;;;;;;;0.90;0.90;;;;;;;2.92;81.57;96767.50;5053175;28;20049;-66
2023/01/13 04:55:35;;;;;;;3.72;1.30;;;;;;;2.82;82.38;96775.28;5053138;28;20049;-65
2023/01/13 04:58:03;;;;;;;0.90;0.90;;;;;;;2.82;82.99;96775.28;5053045;28;20410;-66
2023/01/13 05:00:30;;;;;;;2.65;1.48;;;;;;;2.74;83.16;96774.47;5052921;28;20452;-63
2023/01/13 05:02:58;;;;;;;1.23;1.13;;;;;;;2.64;84.11;96779.66;5053020;28;20045;-63
2023/01/13 05:05:26;;;;;;;1.30;1.20;;;;;;;2.59;84.95;96789.13;5052958;28;20049;-67
2023/01/13 05:07:53;;;;;;;1.20;0.98;;;;;;;2.56;85.87;96793.47;5052823;28;20053;-66
2023/01/13 05:10:21;;;;;;;4.10;1.17;;;;;;;2.62;86.46;96786.53;5052946;28;20101;-65
2023/01/13 05:18:19;;;;;;;1.27;1.13;;;;;;;2.63;86.88;96802.91;5052936;28;20410;-66
2023/01/13 05:20:46;;;;;;;1.98;1.77;;;;;;;2.67;86.82;96798.59;5052730;28;20461;-63
2023/01/13 05:25:58;;;;;;;11.23;5.85;;;;;;;2.77;86.66;96800.31;5052758;28;20412;-64
2023/01/13 05:28:26;;;;;;;20.88;10.68;;;;;;;2.71;86.62;96800.31;5052658;28;20099;-63
2023/01/13 05:30:53;;;;;;;17.42;9.20;;;;;;;2.68;86.41;96802.91;5052692;28;20077;-61
2023/01/13 05:33:20;;;;;;;9.77;5.72;;;;;;;2.68;86.77;96801.16;5052510;28;20041;-64
2023/01/13 05:35:48;;;;;;;3.92;1.98;;;;;;;2.68;87.00;96795.16;5052448;28;20109;-64
2023/01/13 05:38:16;;;;;;;1.70;1.58;;;;;;;2.77;87.21;96792.56;5052362;28;20053;-65
2023/01/13 05:43:32;;;;;;;1.20;1.10;;;;;;;2.80;87.58;96794.25;5052296;28;20166;-63
2023/01/13 05:46:01;;;;;;;1.10;1.10;;;;;;;2.74;87.72;96795.16;5052491;27;20049;-63
2023/01/13 05:48:30;;;;;;;;;;;;;;;2.76;88.00;96793.41;5052612;28;20059;-62
2023/01/13 05:50:59;;;;;;;1.75;0.98;;;;;;;2.71;88.00;96798.56;5052347;28;19955;-62
2023/01/13 05:53:26;;;;;;;1.27;1.17;;;;;;;2.71;88.05;96795.97;5052210;28;20497;-65
2023/01/13 05:55:54;;;;;;;1.15;1.08;;;;;;;2.70;88.03;96791.69;5052215;28;20106;-63
2023/01/13 05:58:23;;;;;;;2.50;2.00;;;;;;;2.74;87.76;96795.16;5052130;28;20053;-64
2023/01/13 06:00:52;;;;;;;4.13;3.30;;;;;;;2.70;87.16;96801.16;5052025;28;20059;-65
2023/01/13 06:03:20;;;;;;;3.15;2.60;;;;;;;2.78;87.59;96805.47;5052036;28;20106;-63
2023/01/13 06:05:50;;;;;;;2.05;1.30;;;;;;;2.85;87.71;96803.72;5052007;28;20132;-67
2023/01/13 06:08:19;;;;;;;1.48;1.30;;;;;;;2.92;88.16;96803.69;5052055;28;20103;-63
2023/01/13 06:10:46;;;;;;;3.60;1.75;;;;;;;2.98;87.18;96801.94;5051932;28;20064;-65
2023/01/13 06:13:13;;;;;;;2.25;1.85;;;;;;;3.03;87.30;96799.34;5051922;28;20073;-63
2023/01/13 06:15:41;;;;;;;1.30;1.20;;;;;;;3.09;87.39;96811.38;5051871;28;20101;-65
2023/01/13 06:18:09;;;;;;;1.50;1.20;;;;;;;3.13;87.53;96798.44;5051716;28;20105;-66
2023/01/13 06:20:37;;;;;;;3.28;1.40;;;;;;;3.15;87.16;96804.47;5051718;28;20060;-63
2023/01/13 06:23:06;;;;;;;3.22;2.28;;;;;;;3.07;87.28;96811.38;5051696;28;20387;-65
2023/01/13 06:25:42;;;;;;;1.13;1.03;;;;;;;3.08;87.04;96810.53;5051753;28;20132;-66
2023/01/13 06:28:17;;;;;;;1.30;1.20;;;;;;;3.13;87.33;96818.28;5051679;28;20049;-66
2023/01/13 06:30:52;;;;;;;1.95;1.00;;;;;;;3.18;87.14;96816.53;5050594;28;20087;-63
2023/01/13 06:33:29;;;;;;;1.10;0.90;;;;;;;3.25;87.22;96814.78;5051517;28;20491;-65
2023/01/13 06:36:05;;;;;;;1.27;1.00;;;;;;;3.27;87.55;96813.91;5051526;28;20133;-64
2023/01/13 06:38:37;;;;;;;1.35;1.20;;;;;;;3.32;87.37;96818.19;5051521;28;20055;-65
2023/01/13 06:41:07;;;;;;;1.23;1.10;;;;;;;3.36;87.44;96822.47;5051391;28;20450;-63
2023/01/13 06:43:33;;;;;;;2.40;1.90;;;;;;;3.39;87.54;96817.28;5051239;28;20049;-63
2023/01/13 06:46:04;;;;;;;1.60;1.48;;;;;;;3.38;87.60;96820.75;5051431;28;20066;-66
2023/01/13 06:48:35;;;;;;;1.50;1.30;;;;;;;3.38;87.94;96823.34;5050667;28;20080;-63
2023/01/13 06:51:02;;;;;;;;;;;;;;;3.41;88.22;96812.97;5051858;28;20120;-62
2023/01/13 06:53:29;;;;;;;1.95;1.75;;;;;;;3.41;88.33;96824.16;5051154;28;19921;-66
2023/01/13 06:55:56;;;;;;;2.38;2.17;;;;;;;3.41;88.56;96826.75;5051373;28;20143;-63
2023/01/13 06:58:23;;;;;;;1.98;1.77;;;;;;;3.46;88.31;96824.13;5051304;28;20603;-63
2023/01/13 07:00:52;;;;;;;2.80;1.58;;;;;;;3.52;88.24;96823.25;5051188;28;20067;-65
2023/01/13 07:03:20;;;;;;;1.52;1.42;;;;;;;3.60;88.35;96831.84;5051025;28;20138;-65
2023/01/13 07:05:54;;;;;;;2.10;1.67;;;;;;;3.65;88.11;96832.66;5051188;28;20121;-64
2023/01/13 07:08:22;;;;;;;2.20;1.85;;;;;;;3.69;87.75;96830.94;5051122;28;20091;-67
2023/01/13 07:10:50;;;;;;;2.10;1.85;;;;;;;3.77;87.89;96833.47;5050929;28;20056;-63
2023/01/13 07:16:04;;;;;;;3.42;2.72;;;;;;;3.78;86.55;96843.81;5051007;28;20513;-65
2023/01/13 07:18:33;;;;;;;3.03;2.47;;;;;;;3.85;86.96;96842.03;5050855;28;20483;-64
2023/01/13 07:21:04;;;;;;;3.80;2.72;;;;;;;3.82;85.63;96843.81;5050873;28;20502;-66
2023/01/13 07:23:35;;;;;;;2.72;1.83;;;;;;;3.80;85.11;96843.81;5050744;28;20045;-65
2023/01/13 07:26:02;;;;;;;2.80;2.38;;;;;;;3.71;84.78;96844.72;5050724;28;20048;-60
2023/01/13 07:28:30;;;;;;;1.23;1.13;;;;;;;3.72;85.30;96851.63;5050651;28;20131;-66
2023/01/13 07:30:58;;;;;;;1.30;1.20;;;;;;;3.67;84.87;96848.19;5050601;28;20432;-62
2023/01/13 07:33:26;;;;;;;1.35;1.25;;;;;;;3.62;84.67;96849.94;5050657;28;20059;-63
2023/01/13 07:35:57;;;;;;;1.23;1.13;;;;;;;3.53;85.32;96859.47;5050726;28;20053;-64
2023/01/13 07:38:27;;;;;;;1.27;1.15;;;;;;;3.56;85.41;96856.03;5050531;28;20046;-64
2023/01/13 07:40:54;;;;;;;2.55;1.23;;;;;;;3.55;85.69;96859.44;5050670;27;20156;-65
2023/01/13 07:43:33;;;;;;;1.75;1.65;;;;;;;3.54;85.89;96855.16;5050282;28;20049;-63
2023/01/13 07:46:01;;;;;;;1.80;1.52;;;;;;;3.62;86.20;96852.53;5050440;28;20481;-64
2023/01/13 07:48:29;;;;;;;1.50;1.40;;;;;;;3.69;85.58;96855.94;5050326;28;20055;-67
2023/01/13 07:50:56;;;;;;;2.03;1.80;;;;;;;3.73;84.99;96860.25;5050246;28;20053;-65
2023/01/13 07:53:25;;;;;;;2.30;1.73;;;;;;;3.73;85.38;96855.91;5050322;28;20045;-64
2023/01/13 07:55:56;;;;;;;2.13;1.83;;;;;;;3.77;84.98;96859.34;5050325;28;20136;-65
2023/01/13 07:58:24;;;;;;;3.70;2.10;;;;;;;3.76;84.72;96861.06;5050298;28;20572;-63
2023/01/13 08:00:51;;;;;;;2.38;2.10;;;;;;;3.76;84.52;96863.66;5049223;28;20041;-65
2023/01/13 08:03:18;;;;;;;1.70;1.60;;;;;;;3.77;85.35;96865.38;5050212;28;20059;-62
2023/01/13 08:05:46;;;;;;;2.53;1.95;;;;;;;3.77;85.25;96865.38;5050096;28;20521;-62
2023/01/13 08:08:13;;;;;;;1.73;1.55;;;;;;;3.81;85.18;96870.53;5050259;28;20088;-66
2023/01/13 08:10:40;;;;;;;2.45;2.00;;;;;;;3.81;84.96;96868.81;5050117;28;20052;-62
2023/01/13 08:13:18;;;;;;;2.47;1.80;;;;;;;3.82;86.42;96869.69;5050398;28;20105;-65
2023/01/13 08:15:47;;;;;;;2.30;2.10;;;;;;;3.87;85.61;96876.56;5050047;28;20056;-66
2023/01/13 08:18:14;;;;;;;4.10;2.05;;;;;;;3.90;85.03;96879.13;5049987;28;20048;-65
2023/01/13 08:20:56;;;;;;;1.80;1.70;;;;;;;3.97;86.55;96879.09;5049998;28;20483;-64
2023/01/13 08:23:26;;;;;;;2.30;1.90;;;;;;;3.92;85.32;96877.38;5050050;28;20409;-63
2023/01/13 08:25:53;;;;;;;1.45;1.35;;;;;;;3.97;84.81;96879.09;5049887;28;20049;-66
2023/01/13 08:28:23;;;;;;;2.15;1.83;;;;;;;4.02;84.62;96873.00;5049937;28;20072;-67
2023/01/13 08:30:51;;;;;;;1.83;1.67;;;;;;;4.04;84.31;96876.44;5049703;28;20060;-63
2023/01/13 08:33:18;;;;;;;1.60;1.50;;;;;;;4.07;83.81;96872.97;5049861;28;20550;-65
2023/01/13 08:35:47;;;;;;;1.90;1.80;;;;;;;4.12;83.88;96880.72;5049877;28;20380;-64
2023/01/13 08:38:15;;;;;;;2.33;1.88;;;;;;;4.03;82.69;96876.44;5049868;28;20044;-65
2023/01/13 08:40:42;;;;;;;1.70;1.55;;;;;;;4.08;83.01;96879.88;5049722;28;20041;-64
2023/01/13 08:43:09;;;;;;;1.80;1.70;;;;;;;4.11;82.59;96876.38;5049568;27;20045;-66
2023/01/13 08:45:38;;;;;;;1.88;1.52;;;;;;;4.09;82.30;96879.00;5049724;28;20053;-61
2023/01/13 08:48:06;;;;;;;1.70;1.60;;;;;;;4.20;83.02;96878.06;5049679;28;20500;-63
2023/01/13 08:50:33;;;;;;;2.40;1.52;;;;;;;4.29;81.24;96884.03;5049669;28;20063;-66
2023/01/13 08:53:01;;;;;;;1.40;1.30;;;;;;;4.34;81.26;96878.84;5049755;28;20124;-65
2023/01/13 08:55:28;;;;;;;1.55;1.27;;;;;;;4.41;81.58;96880.50;5049596;28;20049;-63
2023/01/13 08:57:55;;;;;;;1.70;1.50;;;;;;;4.42;81.13;96878.75;5049536;28;20082;-67
2023/01/13 09:00:23;;;;;;;1.30;1.20;;;;;;;4.46;82.03;96875.28;5049610;28;20072;-64
2023/01/13 09:02:51;;;;;;;1.80;1.30;;;;;;;4.53;81.22;96878.66;5049472;28;20055;-65
2023/01/13 09:05:18;;;;;;;2.05;1.55;;;;;;;4.53;81.06;96874.34;5049604;28;20076;-67
2023/01/13 09:07:46;;;;;;;2.72;1.40;;;;;;;4.59;81.49;96869.97;5049495;28;20084;-65
2023/01/13 09:10:13;;;;;;;2.30;1.60;;;;;;;4.76;83.18;96870.69;5049371;28;20105;-62
2023/01/13 09:15:25;;;;;;;1.75;1.40;;;;;;;5.14;80.15;96871.19;5052964;28;20056;-64
2023/01/13 09:17:53;;;;;;;1.55;1.45;;;;;;;5.25;77.96;96860.69;5052788;28;20140;-66
2023/01/13 09:20:20;;;;;;;2.58;1.30;;;;;;;5.43;78.28;96859.63;5052649;28;20049;-63
2023/01/13 09:22:48;;;;;;;1.75;1.33;;;;;;;5.49;75.89;96860.41;5052793;27;20087;-64
2023/01/13 09:25:15;;;;;;;1.58;1.30;;;;;;;5.56;75.44;96857.72;5052758;28;20049;-63
2023/01/13 09:27:42;;;;;;;1.95;1.85;;;;;;;5.68;75.51;96855.81;5052512;28;20136;-63
2023/01/13 09:30:10;;;;;;;2.15;1.85;;;;;;;5.84;75.06;96850.44;5052475;27;20491;-64
2023/01/13 09:32:38;;;;;;;1.63;1.33;;;;;;;6.00;75.10;96856.25;5052605;28;20406;-62
2023/01/13 09:35:08;;;;;;;1.77;1.42;;;;;;;6.06;73.46;96856.22;5052611;28;20124;-66
2023/01/13 09:37:37;;;;;;;2.80;2.60;;;;;;;6.15;73.67;96847.41;5052475;28;20497;-67
2023/01/13 09:40:07;;;;;;;1.98;1.77;;;;;;;6.31;74.00;96840.22;5052316;28;20049;-63
2023/01/13 09:45:32;;;;;;;1.45;1.35;;;;;;;6.75;71.67;96844.69;5052497;28;20581;-64
2023/01/13 09:48:06;;;;;;;1.10;1.05;;;;;;;6.90;70.43;96834.03;5052359;28;20049;-64
2023/01/13 09:50:54;;;;;;;1.40;1.30;;;;;;;7.01;70.23;96838.19;5052151;28;20490;-64
2023/01/13 09:53:28;;;;;;;1.25;1.15;;;;;;;7.06;70.59;96839.78;5052219;28;20052;-64
2023/01/13 09:55:56;;;;;;;1.73;1.60;;;;;;;7.08;69.27;96830.19;5052201;28;20163;-63
2023/01/13 09:58:24;;;;;;;1.25;1.15;;;;;;;7.07;69.02;96831.09;5052249;28;20266;-65
2023/01/13 10:01:05;;;;;;;1.10;0.88;;;;;;;7.05;69.30;96832.84;5052201;28;20049;-65
2023/01/13 10:03:33;;;;;;;;;;;;;;;7.00;69.00;96826.91;5052470;28;20045;-63
2023/01/13 10:06:11;;;;;;;1.85;1.60;;;;;;;7.02;68.82;96832.06;5052149;28;20025;-64
2023/01/13 10:08:40;;;;;;;1.55;1.45;;;;;;;7.02;69.78;96819.94;5052100;28;20073;-64
2023/01/13 10:13:58;;;;;;;1.20;1.10;;;;;;;7.06;70.63;96828.53;5051821;28;20056;-66
2023/01/13 10:16:39;;;;;;;2.25;1.50;;;;;;;7.07;70.26;96818.09;5051798;28;20394;-66
2023/01/13 10:19:15;;;;;;;4.22;1.13;;;;;;;7.17;71.78;96823.13;5051750;28;20561;-65
2023/01/13 10:22:11;;;;;;;1.50;1.40;;;;;;;7.25;69.44;96823.81;5051760;28;20079;-66
2023/01/13 10:25:05;;;;;;;1.70;1.40;;;;;;;7.33;69.45;96815.84;5050681;28;20049;-67
2023/01/13 10:27:34;;;;;;;1.35;1.25;;;;;;;7.45;69.20;96820.81;5051733;28;20057;-65
2023/01/13 10:30:12;;;;;;;1.55;1.30;;;;;;;7.35;67.87;96810.63;5051559;28;20041;-65
2023/01/13 10:32:43;;;;;;;1.25;1.15;;;;;;;7.35;68.48;96810.63;5051646;28;20090;-67
2023/01/13 10:35:10;;;;;;;;;;;;;;;7.28;69.56;96805.53;5052069;28;20060;-62
2023/01/13 10:37:38;;;;;;;4.07;2.67;;;;;;;7.31;69.71;96799.41;5051635;28;19921;-64
2023/01/13 10:40:18;;;;;;;1.67;1.58;;;;;;;7.33;70.83;96797.63;5051399;28;20104;-62
2023/01/13 10:42:45;;;;;;;2.33;2.10;;;;;;;7.44;69.77;96797.41;5051239;28;20406;-64
2023/01/13 10:45:24;;;;;;;2.75;1.83;;;;;;;7.58;68.64;96789.28;5051542;28;20049;-66
2023/01/13 10:48:06;;;;;;;1.48;1.38;;;;;;;7.59;68.56;96789.25;5051357;28;20057;-65
2023/01/13 10:50:37;;;;;;;1.63;1.33;;;;;;;7.60;69.31;96787.53;5051220;28;20156;-66
2023/01/13 10:53:19;;;;;;;2.22;2.03;;;;;;;7.78;68.88;96788.00;5051402;28;20060;-63
2023/01/13 10:56:00;;;;;;;1.75;1.48;;;;;;;7.77;67.29;96792.34;5051278;28;20045;-66
2023/01/13 10:58:28;;;;;;;2.03;1.80;;;;;;;7.79;69.03;96787.09;5051257;28;20045;-64
2023/01/13 11:01:04;;;;;;;1.95;1.75;;;;;;;7.78;70.08;96794.06;5051340;28;20053;-65
2023/01/13 11:03:44;;;;;;;1.67;1.50;;;;;;;7.71;68.15;96787.28;5051243;28;20048;-64
2023/01/13 11:06:21;;;;;;;2.17;1.70;;;;;;;7.69;68.46;96787.31;5051242;28;20049;-65
2023/01/13 11:08:51;;;;;;;1.40;1.30;;;;;;;7.58;67.72;96784.94;5051024;28;20056;-64
2023/01/13 11:11:39;;;;;;;1.50;1.02;;;;;;;7.57;66.82;96785.84;5051068;28;20049;-63
2023/01/13 11:14:35;;;;;;;1.23;1.13;;;;;;;7.54;67.54;96779.84;5050897;28;20049;-66
2023/01/13 11:17:09;;;;;;;1.50;1.20;;;;;;;7.43;67.26;96780.06;5050857;28;20053;-65
2023/01/13 11:19:42;;;;;;;1.10;1.00;;;;;;;7.41;68.00;96776.66;5050928;28;20049;-64
2023/01/13 11:22:14;;;;;;;1.98;1.30;;;;;;;7.36;67.85;96781.09;5050861;28;20057;-66
2023/01/13 11:24:49;;;;;;;1.38;1.08;;;;;;;7.32;69.08;96778.56;5050833;28;20053;-65
2023/01/13 11:27:21;;;;;;;1.88;1.40;;;;;;;7.31;67.99;96781.19;5050701;28;20110;-67
2023/01/13 11:30:02;;;;;;;1.45;1.30;;;;;;;7.25;69.08;96773.53;5050729;28;20048;-64
2023/01/13 11:32:37;;;;;;;1.42;1.20;;;;;;;7.15;68.27;96765.91;5050756;28;20567;-66
2023/01/13 11:35:16;;;;;;;2.15;1.17;;;;;;;7.18;68.48;96773.66;5050309;28;20136;-63
2023/01/13 11:37:48;;;;;;;1.50;1.17;;;;;;;7.07;67.20;96778.19;5050715;28;20045;-66
2023/01/13 11:40:21;;;;;;;1.30;1.20;;;;;;;6.99;67.34;96780.97;5050465;28;20092;-66
2023/01/13 11:42:56;;;;;;;2.33;1.85;;;;;;;6.98;68.23;96770.59;5050140;28;20149;-66
2023/01/13 11:45:32;;;;;;;1.42;1.00;;;;;;;6.89;68.58;96777.69;5050593;28;20053;-65
2023/01/13 11:48:03;;;;;;;1.20;1.10;;;;;;;6.76;68.56;96768.41;5050479;28;20080;-63
2023/01/13 11:50:40;;;;;;;1.40;1.30;;;;;;;6.78;69.75;96767.50;5050390;28;20049;-65
2023/01/13 11:53:20;;;;;;;1.33;1.00;;;;;;;6.77;69.06;96765.78;5050360;28;20089;-67
2023/01/13 11:56:01;;;;;;;1.40;1.30;;;;;;;6.72;69.02;96764.16;5050375;28;20073;-64
2023/01/13 11:59:00;;;;;;;1.20;1.10;;;;;;;6.65;67.84;96764.25;5050310;28;20077;-68
2023/01/13 12:01:41;;;;;;;1.20;1.10;;;;;;;6.60;68.88;96760.91;5058797;28;20123;-67
2023/01/13 12:04:24;;;;;;;1.10;1.00;;;;;;;6.46;69.17;96753.34;5050261;28;20105;-64
2023/01/13 12:06:58;;;;;;;1.33;1.00;;;;;;;6.48;69.78;96755.94;5050134;28;20049;-66
2023/01/13 12:09:37;;;;;;;1.38;1.27;;;;;;;6.41;69.34;96748.22;5050098;28;20118;-66
2023/01/13 12:12:21;;;;;;;3.10;1.08;;;;;;;6.49;71.60;96749.84;5050113;28;20053;-67
2023/01/13 12:15:21;;;;;;;1.30;1.20;;;;;;;6.53;69.76;96741.13;5050201;28;20128;-66
2023/01/13 12:18:04;;;;;;;1.50;1.40;;;;;;;6.52;69.82;96747.19;5051534;28;20448;-63
2023/01/13 12:20:40;;;;;;;1.38;1.27;;;;;;;6.51;69.12;96742.88;5050127;28;20049;-65
2023/01/13 12:23:15;;;;;;;1.42;1.23;;;;;;;6.53;69.86;96736.75;5049935;28;20053;-64
2023/01/13 12:25:47;;;;;;;1.50;1.40;;;;;;;6.49;69.20;96739.44;5049982;28;20052;-64
2023/01/13 12:28:21;;;;;;;1.42;1.30;;;;;;;6.47;69.82;96739.47;5049914;28;20045;-66
2023/01/13 12:30:52;;;;;;;1.73;1.35;;;;;;;6.47;69.99;96742.06;5049802;28;20033;-65
2023/01/13 12:33:37;;;;;;;3.65;1.50;;;;;;;6.52;70.04;96747.19;5049802;28;20440;-63
2023/01/13 12:36:11;;;;;;;2.42;1.90;;;;;;;6.58;70.61;96744.47;5049945;28;20046;-64
2023/01/13 12:38:46;;;;;;;1.30;1.20;;;;;;;6.59;69.58;96742.75;5049768;28;20045;-64